sensor_id;sensor_type;location;lat;lon;timestamp;P1;durP1;ratioP1;P2;durP2;ratioP2
45792;SDS011;31495;42.740;22.908;2023-03-01T00:00:49;5.93;;;4.03;;
45792;SDS011;31495;42.740;22.908;2023-03-01T00:01:48;9.00;;;4.40;;
45792;SDS011;31495;42.740;22.908;2023-03-01T00:02:48;6.55;;;4.07;;
45792;SDS011;31495;42.740;22.908;2023-03-01T00:03:48;6.88;;;4.25;;
45792;SDS011;31495;42.740;22.908;2023-03-01T00:04:47;7.88;;;3.97;;
45792;SDS011;31495;42.740;22.908;2023-03-01T00:05:48;7.60;;;4.30;;
45792;SDS011;31495;42.740;22.908;2023-03-01T00:06:47;8.45;;;4.15;;
45792;SDS011;31495;42.740;22.908;2023-03-01T00:07:47;7.85;;;4.47;;
45792;SDS011;31495;42.740;22.908;2023-03-01T00:08:46;5.93;;;3.70;;
45792;SDS011;31495;42.740;22.908;2023-03-01T00:09:47;8.35;;;4.22;;
45792;SDS011;31495;42.740;22.908;2023-03-01T00:10:46;7.40;;;4.20;;
45792;SDS011;31495;42.740;22.908;2023-03-01T00:11:45;7.47;;;4.35;;
45792;SDS011;31495;42.740;22.908;2023-03-01T00:12:45;5.38;;;3.28;;
45792;SDS011;31495;42.740;22.908;2023-03-01T00:13:47;8.95;;;4.78;;
45792;SDS011;31495;42.740;22.908;2023-03-01T00:14:48;8.52;;;4.40;;
45792;SDS011;31495;42.740;22.908;2023-03-01T00:15:48;8.30;;;4.18;;
45792;SDS011;31495;42.740;22.908;2023-03-01T00:16:47;7.50;;;4.25;;
45792;SDS011;31495;42.740;22.908;2023-03-01T00:17:46;8.77;;;4.30;;
45792;SDS011;31495;42.740;22.908;2023-03-01T00:18:46;7.70;;;5.13;;
45792;SDS011;31495;42.740;22.908;2023-03-01T00:19:46;9.15;;;4.50;;
45792;SDS011;31495;42.740;22.908;2023-03-01T00:20:52;7.47;;;3.95;;
45792;SDS011;31495;42.740;22.908;2023-03-01T00:21:52;9.02;;;4.25;;
45792;SDS011;31495;42.740;22.908;2023-03-01T00:22:52;7.85;;;4.47;;
45792;SDS011;31495;42.740;22.908;2023-03-01T00:23:52;6.88;;;4.32;;
45792;SDS011;31495;42.740;22.908;2023-03-01T00:24:52;6.78;;;4.45;;
45792;SDS011;31495;42.740;22.908;2023-03-01T00:25:51;7.00;;;4.07;;
45792;SDS011;31495;42.740;22.908;2023-03-01T00:26:54;7.13;;;4.03;;
45792;SDS011;31495;42.740;22.908;2023-03-01T00:27:54;8.07;;;4.57;;
45792;SDS011;31495;42.740;22.908;2023-03-01T00:28:54;6.90;;;4.00;;
45792;SDS011;31495;42.740;22.908;2023-03-01T00:29:57;9.75;;;4.47;;
45792;SDS011;31495;42.740;22.908;2023-03-01T00:30:56;6.43;;;4.05;;
45792;SDS011;31495;42.740;22.908;2023-03-01T00:32:02;6.43;;;3.85;;
45792;SDS011;31495;42.740;22.908;2023-03-01T00:33:01;5.72;;;3.55;;
45792;SDS011;31495;42.740;22.908;2023-03-01T00:34:02;7.38;;;4.13;;
45792;SDS011;31495;42.740;22.908;2023-03-01T00:35:03;5.15;;;3.20;;
45792;SDS011;31495;42.740;22.908;2023-03-01T00:36:05;7.95;;;4.28;;
45792;SDS011;31495;42.740;22.908;2023-03-01T00:37:05;7.25;;;4.00;;
45792;SDS011;31495;42.740;22.908;2023-03-01T00:38:05;7.43;;;3.92;;
45792;SDS011;31495;42.740;22.908;2023-03-01T00:39:05;6.93;;;3.85;;
45792;SDS011;31495;42.740;22.908;2023-03-01T00:40:08;6.28;;;3.67;;
45792;SDS011;31495;42.740;22.908;2023-03-01T00:41:10;6.97;;;3.83;;
45792;SDS011;31495;42.740;22.908;2023-03-01T00:42:12;7.13;;;4.03;;
45792;SDS011;31495;42.740;22.908;2023-03-01T00:43:11;8.27;;;4.60;;
45792;SDS011;31495;42.740;22.908;2023-03-01T00:44:11;7.38;;;4.15;;
45792;SDS011;31495;42.740;22.908;2023-03-01T00:45:10;7.40;;;4.13;;
45792;SDS011;31495;42.740;22.908;2023-03-01T00:46:11;8.93;;;4.30;;
45792;SDS011;31495;42.740;22.908;2023-03-01T00:47:12;8.00;;;4.18;;
45792;SDS011;31495;42.740;22.908;2023-03-01T00:48:12;6.85;;;3.85;;
45792;SDS011;31495;42.740;22.908;2023-03-01T00:49:12;6.55;;;3.47;;
45792;SDS011;31495;42.740;22.908;2023-03-01T00:50:12;7.78;;;4.10;;
45792;SDS011;31495;42.740;22.908;2023-03-01T00:52:13;6.35;;;4.38;;
45792;SDS011;31495;42.740;22.908;2023-03-01T00:53:12;7.28;;;4.50;;
45792;SDS011;31495;42.740;22.908;2023-03-01T00:54:11;8.00;;;4.20;;
45792;SDS011;31495;42.740;22.908;2023-03-01T00:55:11;7.78;;;4.43;;
45792;SDS011;31495;42.740;22.908;2023-03-01T00:56:12;8.57;;;5.18;;
45792;SDS011;31495;42.740;22.908;2023-03-01T00:57:13;9.23;;;5.07;;
45792;SDS011;31495;42.740;22.908;2023-03-01T00:58:13;10.45;;;5.43;;
45792;SDS011;31495;42.740;22.908;2023-03-01T00:59:12;9.15;;;5.57;;
45792;SDS011;31495;42.740;22.908;2023-03-01T01:00:12;8.15;;;4.90;;
45792;SDS011;31495;42.740;22.908;2023-03-01T01:01:19;11.60;;;5.40;;
45792;SDS011;31495;42.740;22.908;2023-03-01T01:02:22;7.03;;;4.57;;
45792;SDS011;31495;42.740;22.908;2023-03-01T01:03:22;7.78;;;5.20;;
45792;SDS011;31495;42.740;22.908;2023-03-01T01:04:23;10.13;;;4.70;;
45792;SDS011;31495;42.740;22.908;2023-03-01T01:05:23;7.20;;;4.38;;
45792;SDS011;31495;42.740;22.908;2023-03-01T01:06:27;8.00;;;5.53;;
45792;SDS011;31495;42.740;22.908;2023-03-01T01:07:29;8.90;;;5.80;;
45792;SDS011;31495;42.740;22.908;2023-03-01T01:08:29;10.23;;;6.63;;
45792;SDS011;31495;42.740;22.908;2023-03-01T01:09:28;9.80;;;6.07;;
45792;SDS011;31495;42.740;22.908;2023-03-01T01:10:27;10.35;;;6.25;;
45792;SDS011;31495;42.740;22.908;2023-03-01T01:11:27;12.52;;;6.32;;
45792;SDS011;31495;42.740;22.908;2023-03-01T01:12:28;9.65;;;5.75;;
45792;SDS011;31495;42.740;22.908;2023-03-01T01:13:28;9.93;;;6.05;;
45792;SDS011;31495;42.740;22.908;2023-03-01T01:14:27;9.20;;;5.72;;
45792;SDS011;31495;42.740;22.908;2023-03-01T01:15:27;10.05;;;5.72;;
45792;SDS011;31495;42.740;22.908;2023-03-01T01:16:27;10.32;;;5.38;;
45792;SDS011;31495;42.740;22.908;2023-03-01T01:17:28;9.77;;;5.90;;
45792;SDS011;31495;42.740;22.908;2023-03-01T01:18:27;8.18;;;5.50;;
45792;SDS011;31495;42.740;22.908;2023-03-01T01:19:26;8.27;;;5.25;;
45792;SDS011;31495;42.740;22.908;2023-03-01T01:20:26;7.85;;;5.03;;
45792;SDS011;31495;42.740;22.908;2023-03-01T01:21:26;9.18;;;5.55;;
45792;SDS011;31495;42.740;22.908;2023-03-01T01:22:27;9.57;;;5.60;;
45792;SDS011;31495;42.740;22.908;2023-03-01T01:23:26;8.93;;;5.30;;
45792;SDS011;31495;42.740;22.908;2023-03-01T01:24:25;8.35;;;5.28;;
45792;SDS011;31495;42.740;22.908;2023-03-01T01:25:25;7.15;;;4.85;;
45792;SDS011;31495;42.740;22.908;2023-03-01T01:26:26;6.97;;;4.53;;
45792;SDS011;31495;42.740;22.908;2023-03-01T01:27:30;8.40;;;5.22;;
45792;SDS011;31495;42.740;22.908;2023-03-01T01:28:29;9.05;;;5.13;;
45792;SDS011;31495;42.740;22.908;2023-03-01T01:29:29;7.75;;;5.47;;
45792;SDS011;31495;42.740;22.908;2023-03-01T01:30:29;9.50;;;6.40;;
45792;SDS011;31495;42.740;22.908;2023-03-01T01:31:28;8.98;;;5.55;;
45792;SDS011;31495;42.740;22.908;2023-03-01T01:32:28;8.55;;;5.70;;
45792;SDS011;31495;42.740;22.908;2023-03-01T01:33:28;6.90;;;4.57;;
45792;SDS011;31495;42.740;22.908;2023-03-01T01:34:28;8.85;;;5.55;;
45792;SDS011;31495;42.740;22.908;2023-03-01T01:35:28;10.43;;;6.35;;
45792;SDS011;31495;42.740;22.908;2023-03-01T01:36:27;8.90;;;5.78;;
45792;SDS011;31495;42.740;22.908;2023-03-01T01:37:27;8.07;;;5.72;;
45792;SDS011;31495;42.740;22.908;2023-03-01T01:38:30;9.75;;;5.82;;
45792;SDS011;31495;42.740;22.908;2023-03-01T01:39:29;9.02;;;5.60;;
45792;SDS011;31495;42.740;22.908;2023-03-01T01:40:29;10.90;;;5.63;;
45792;SDS011;31495;42.740;22.908;2023-03-01T01:41:28;9.75;;;6.28;;
45792;SDS011;31495;42.740;22.908;2023-03-01T01:42:28;8.73;;;5.97;;
45792;SDS011;31495;42.740;22.908;2023-03-01T01:43:29;11.00;;;5.55;;
45792;SDS011;31495;42.740;22.908;2023-03-01T01:44:32;8.20;;;5.80;;
45792;SDS011;31495;42.740;22.908;2023-03-01T01:45:34;8.43;;;5.43;;
45792;SDS011;31495;42.740;22.908;2023-03-01T01:46:35;9.40;;;5.95;;
45792;SDS011;31495;42.740;22.908;2023-03-01T01:47:38;7.20;;;5.30;;
45792;SDS011;31495;42.740;22.908;2023-03-01T01:48:39;8.45;;;5.47;;
45792;SDS011;31495;42.740;22.908;2023-03-01T01:49:47;9.70;;;5.80;;
45792;SDS011;31495;42.740;22.908;2023-03-01T01:50:52;9.40;;;6.13;;
45792;SDS011;31495;42.740;22.908;2023-03-01T01:53:33;6.75;;;4.28;;
45792;SDS011;31495;42.740;22.908;2023-03-01T01:54:40;7.45;;;4.47;;
45792;SDS011;31495;42.740;22.908;2023-03-01T01:55:51;8.13;;;5.05;;
45792;SDS011;31495;42.740;22.908;2023-03-01T01:56:59;7.70;;;4.50;;
45792;SDS011;31495;42.740;22.908;2023-03-01T01:58:03;8.10;;;5.20;;
45792;SDS011;31495;42.740;22.908;2023-03-01T01:59:06;8.45;;;4.97;;
45792;SDS011;31495;42.740;22.908;2023-03-01T02:00:10;7.97;;;5.00;;
45792;SDS011;31495;42.740;22.908;2023-03-01T02:01:10;9.95;;;5.80;;
45792;SDS011;31495;42.740;22.908;2023-03-01T02:02:11;6.20;;;4.32;;
45792;SDS011;31495;42.740;22.908;2023-03-01T02:03:13;7.40;;;4.93;;
45792;SDS011;31495;42.740;22.908;2023-03-01T02:04:16;8.82;;;5.45;;
45792;SDS011;31495;42.740;22.908;2023-03-01T02:05:19;8.43;;;5.75;;
45792;SDS011;31495;42.740;22.908;2023-03-01T02:06:44;7.72;;;5.00;;
45792;SDS011;31495;42.740;22.908;2023-03-01T02:08:06;6.65;;;4.55;;
45792;SDS011;31495;42.740;22.908;2023-03-01T02:09:10;8.20;;;5.40;;
45792;SDS011;31495;42.740;22.908;2023-03-01T02:10:12;7.57;;;5.18;;
45792;SDS011;31495;42.740;22.908;2023-03-01T02:11:12;7.28;;;4.78;;
45792;SDS011;31495;42.740;22.908;2023-03-01T02:12:14;8.02;;;5.25;;
45792;SDS011;31495;42.740;22.908;2023-03-01T02:13:16;8.05;;;5.25;;
45792;SDS011;31495;42.740;22.908;2023-03-01T02:14:15;6.45;;;4.60;;
45792;SDS011;31495;42.740;22.908;2023-03-01T02:15:15;6.28;;;4.85;;
45792;SDS011;31495;42.740;22.908;2023-03-01T02:16:16;6.82;;;4.78;;
45792;SDS011;31495;42.740;22.908;2023-03-01T02:17:16;5.90;;;4.07;;
45792;SDS011;31495;42.740;22.908;2023-03-01T02:18:18;7.13;;;4.45;;
45792;SDS011;31495;42.740;22.908;2023-03-01T02:19:26;6.15;;;4.70;;
45792;SDS011;31495;42.740;22.908;2023-03-01T02:22:05;6.97;;;4.50;;
45792;SDS011;31495;42.740;22.908;2023-03-01T02:23:13;6.13;;;4.32;;
45792;SDS011;31495;42.740;22.908;2023-03-01T02:24:17;9.60;;;5.22;;
45792;SDS011;31495;42.740;22.908;2023-03-01T02:26:46;6.60;;;4.78;;
45792;SDS011;31495;42.740;22.908;2023-03-01T02:29:14;7.47;;;5.32;;
45792;SDS011;31495;42.740;22.908;2023-03-01T02:30:13;7.88;;;5.65;;
45792;SDS011;31495;42.740;22.908;2023-03-01T02:31:19;8.57;;;5.70;;
45792;SDS011;31495;42.740;22.908;2023-03-01T02:32:41;8.77;;;5.50;;
45792;SDS011;31495;42.740;22.908;2023-03-01T02:33:41;7.38;;;5.25;;
45792;SDS011;31495;42.740;22.908;2023-03-01T02:34:43;8.63;;;6.05;;
45792;SDS011;31495;42.740;22.908;2023-03-01T02:35:42;7.65;;;5.18;;
45792;SDS011;31495;42.740;22.908;2023-03-01T02:36:59;8.23;;;5.85;;
45792;SDS011;31495;42.740;22.908;2023-03-01T02:38:03;7.28;;;5.47;;
45792;SDS011;31495;42.740;22.908;2023-03-01T02:39:07;7.80;;;5.13;;
45792;SDS011;31495;42.740;22.908;2023-03-01T02:40:14;6.97;;;4.70;;
45792;SDS011;31495;42.740;22.908;2023-03-01T02:41:17;6.45;;;4.55;;
45792;SDS011;31495;42.740;22.908;2023-03-01T02:42:23;8.35;;;5.75;;
45792;SDS011;31495;42.740;22.908;2023-03-01T02:43:31;5.78;;;3.70;;
45792;SDS011;31495;42.740;22.908;2023-03-01T02:44:32;6.90;;;4.30;;
45792;SDS011;31495;42.740;22.908;2023-03-01T02:45:31;6.25;;;4.10;;
45792;SDS011;31495;42.740;22.908;2023-03-01T02:46:31;6.85;;;4.13;;
45792;SDS011;31495;42.740;22.908;2023-03-01T02:47:30;7.97;;;3.50;;
45792;SDS011;31495;42.740;22.908;2023-03-01T02:48:38;7.05;;;3.75;;
45792;SDS011;31495;42.740;22.908;2023-03-01T02:49:39;4.40;;;3.25;;
45792;SDS011;31495;42.740;22.908;2023-03-01T02:51:25;6.47;;;3.90;;
45792;SDS011;31495;42.740;22.908;2023-03-01T02:52:23;4.05;;;3.10;;
45792;SDS011;31495;42.740;22.908;2023-03-01T02:53:39;5.47;;;3.70;;
45792;SDS011;31495;42.740;22.908;2023-03-01T02:56:01;4.07;;;2.80;;
45792;SDS011;31495;42.740;22.908;2023-03-01T02:57:01;4.78;;;3.13;;
45792;SDS011;31495;42.740;22.908;2023-03-01T02:58:02;4.70;;;2.75;;
45792;SDS011;31495;42.740;22.908;2023-03-01T02:59:03;4.85;;;3.05;;
45792;SDS011;31495;42.740;22.908;2023-03-01T03:00:04;4.05;;;2.80;;
45792;SDS011;31495;42.740;22.908;2023-03-01T03:01:18;5.32;;;3.03;;
45792;SDS011;31495;42.740;22.908;2023-03-01T03:02:26;4.13;;;2.72;;
45792;SDS011;31495;42.740;22.908;2023-03-01T03:03:37;4.32;;;2.50;;
45792;SDS011;31495;42.740;22.908;2023-03-01T03:04:37;3.95;;;2.10;;
45792;SDS011;31495;42.740;22.908;2023-03-01T03:05:36;4.28;;;2.72;;
45792;SDS011;31495;42.740;22.908;2023-03-01T03:06:36;3.60;;;2.05;;
45792;SDS011;31495;42.740;22.908;2023-03-01T03:07:37;4.15;;;2.17;;
45792;SDS011;31495;42.740;22.908;2023-03-01T03:08:38;4.20;;;2.22;;
45792;SDS011;31495;42.740;22.908;2023-03-01T03:09:38;4.50;;;2.28;;
45792;SDS011;31495;42.740;22.908;2023-03-01T03:10:39;2.67;;;1.90;;
45792;SDS011;31495;42.740;22.908;2023-03-01T03:11:40;2.50;;;1.38;;
45792;SDS011;31495;42.740;22.908;2023-03-01T03:12:42;4.28;;;2.13;;
45792;SDS011;31495;42.740;22.908;2023-03-01T03:13:42;7.38;;;2.35;;
45792;SDS011;31495;42.740;22.908;2023-03-01T03:14:46;3.10;;;1.73;;
45792;SDS011;31495;42.740;22.908;2023-03-01T03:15:46;3.17;;;1.90;;
45792;SDS011;31495;42.740;22.908;2023-03-01T03:16:47;4.00;;;2.03;;
45792;SDS011;31495;42.740;22.908;2023-03-01T03:17:48;3.38;;;2.00;;
45792;SDS011;31495;42.740;22.908;2023-03-01T03:18:49;4.35;;;1.30;;
45792;SDS011;31495;42.740;22.908;2023-03-01T03:19:48;3.78;;;1.70;;
45792;SDS011;31495;42.740;22.908;2023-03-01T03:20:48;3.72;;;1.85;;
45792;SDS011;31495;42.740;22.908;2023-03-01T03:21:52;2.75;;;1.55;;
45792;SDS011;31495;42.740;22.908;2023-03-01T03:22:52;4.05;;;1.80;;
45792;SDS011;31495;42.740;22.908;2023-03-01T03:23:52;2.88;;;1.60;;
45792;SDS011;31495;42.740;22.908;2023-03-01T03:24:52;2.60;;;1.30;;
45792;SDS011;31495;42.740;22.908;2023-03-01T03:25:51;3.08;;;1.55;;
45792;SDS011;31495;42.740;22.908;2023-03-01T03:26:50;2.85;;;1.33;;
45792;SDS011;31495;42.740;22.908;2023-03-01T03:27:50;2.63;;;1.40;;
45792;SDS011;31495;42.740;22.908;2023-03-01T03:28:55;3.53;;;1.48;;
45792;SDS011;31495;42.740;22.908;2023-03-01T03:29:55;3.72;;;2.08;;
45792;SDS011;31495;42.740;22.908;2023-03-01T03:30:54;2.65;;;1.25;;
45792;SDS011;31495;42.740;22.908;2023-03-01T03:31:54;3.25;;;1.52;;
45792;SDS011;31495;42.740;22.908;2023-03-01T03:32:53;2.58;;;1.48;;
45792;SDS011;31495;42.740;22.908;2023-03-01T03:33:54;2.60;;;1.70;;
45792;SDS011;31495;42.740;22.908;2023-03-01T03:34:53;2.60;;;1.50;;
45792;SDS011;31495;42.740;22.908;2023-03-01T03:35:52;2.63;;;1.40;;
45792;SDS011;31495;42.740;22.908;2023-03-01T03:36:53;3.25;;;1.77;;
45792;SDS011;31495;42.740;22.908;2023-03-01T03:37:59;3.03;;;1.60;;
45792;SDS011;31495;42.740;22.908;2023-03-01T03:39:05;3.75;;;2.08;;
45792;SDS011;31495;42.740;22.908;2023-03-01T03:40:04;3.60;;;1.50;;
45792;SDS011;31495;42.740;22.908;2023-03-01T03:41:14;4.88;;;2.65;;
45792;SDS011;31495;42.740;22.908;2023-03-01T03:42:14;3.42;;;1.73;;
45792;SDS011;31495;42.740;22.908;2023-03-01T03:43:33;6.03;;;2.75;;
45792;SDS011;31495;42.740;22.908;2023-03-01T03:44:34;5.85;;;3.25;;
45792;SDS011;31495;42.740;22.908;2023-03-01T03:45:35;10.43;;;5.35;;
45792;SDS011;31495;42.740;22.908;2023-03-01T03:46:36;9.73;;;5.03;;
45792;SDS011;31495;42.740;22.908;2023-03-01T03:47:54;12.98;;;6.43;;
45792;SDS011;31495;42.740;22.908;2023-03-01T03:48:53;10.05;;;5.05;;
45792;SDS011;31495;42.740;22.908;2023-03-01T03:49:53;9.48;;;5.95;;
45792;SDS011;31495;42.740;22.908;2023-03-01T03:50:53;11.10;;;6.35;;
45792;SDS011;31495;42.740;22.908;2023-03-01T03:51:54;8.45;;;4.75;;
45792;SDS011;31495;42.740;22.908;2023-03-01T03:52:53;5.38;;;3.00;;
45792;SDS011;31495;42.740;22.908;2023-03-01T03:53:53;11.80;;;5.93;;
45792;SDS011;31495;42.740;22.908;2023-03-01T03:54:52;7.40;;;2.95;;
45792;SDS011;31495;42.740;22.908;2023-03-01T03:55:52;8.05;;;3.88;;
45792;SDS011;31495;42.740;22.908;2023-03-01T03:58:10;6.45;;;2.90;;
45792;SDS011;31495;42.740;22.908;2023-03-01T03:59:11;4.22;;;2.00;;
45792;SDS011;31495;42.740;22.908;2023-03-01T04:00:10;2.70;;;1.52;;
45792;SDS011;31495;42.740;22.908;2023-03-01T04:01:11;4.40;;;2.00;;
45792;SDS011;31495;42.740;22.908;2023-03-01T04:02:11;5.95;;;2.33;;
45792;SDS011;31495;42.740;22.908;2023-03-01T04:03:11;4.20;;;1.95;;
45792;SDS011;31495;42.740;22.908;2023-03-01T04:04:13;5.65;;;2.65;;
45792;SDS011;31495;42.740;22.908;2023-03-01T04:05:13;5.97;;;2.75;;
45792;SDS011;31495;42.740;22.908;2023-03-01T04:06:14;5.38;;;2.15;;
45792;SDS011;31495;42.740;22.908;2023-03-01T04:07:13;4.55;;;2.42;;
45792;SDS011;31495;42.740;22.908;2023-03-01T04:08:13;3.70;;;2.03;;
45792;SDS011;31495;42.740;22.908;2023-03-01T04:09:13;3.70;;;1.92;;
45792;SDS011;31495;42.740;22.908;2023-03-01T04:10:13;3.92;;;2.00;;
45792;SDS011;31495;42.740;22.908;2023-03-01T04:11:17;4.38;;;1.55;;
45792;SDS011;31495;42.740;22.908;2023-03-01T04:12:25;3.75;;;1.90;;
45792;SDS011;31495;42.740;22.908;2023-03-01T04:13:24;3.92;;;1.80;;
45792;SDS011;31495;42.740;22.908;2023-03-01T04:14:24;3.38;;;1.92;;
45792;SDS011;31495;42.740;22.908;2023-03-01T04:15:24;4.22;;;2.13;;
45792;SDS011;31495;42.740;22.908;2023-03-01T04:16:26;4.85;;;1.77;;
45792;SDS011;31495;42.740;22.908;2023-03-01T04:17:26;2.30;;;1.40;;
45792;SDS011;31495;42.740;22.908;2023-03-01T04:18:26;4.43;;;2.20;;
45792;SDS011;31495;42.740;22.908;2023-03-01T04:19:25;3.42;;;1.90;;
45792;SDS011;31495;42.740;22.908;2023-03-01T04:20:26;4.55;;;2.08;;
45792;SDS011;31495;42.740;22.908;2023-03-01T04:21:28;3.95;;;1.75;;
45792;SDS011;31495;42.740;22.908;2023-03-01T04:22:27;8.38;;;3.53;;
45792;SDS011;31495;42.740;22.908;2023-03-01T04:23:28;7.38;;;2.72;;
45792;SDS011;31495;42.740;22.908;2023-03-01T04:24:28;4.20;;;2.13;;
45792;SDS011;31495;42.740;22.908;2023-03-01T04:25:27;4.78;;;1.77;;
45792;SDS011;31495;42.740;22.908;2023-03-01T04:26:27;3.90;;;1.92;;
45792;SDS011;31495;42.740;22.908;2023-03-01T04:27:26;3.25;;;1.83;;
45792;SDS011;31495;42.740;22.908;2023-03-01T04:28:27;4.15;;;2.03;;
45792;SDS011;31495;42.740;22.908;2023-03-01T04:29:28;4.72;;;1.85;;
45792;SDS011;31495;42.740;22.908;2023-03-01T04:30:27;3.22;;;1.65;;
45792;SDS011;31495;42.740;22.908;2023-03-01T04:31:27;3.38;;;1.65;;
45792;SDS011;31495;42.740;22.908;2023-03-01T04:32:27;3.60;;;1.85;;
45792;SDS011;31495;42.740;22.908;2023-03-01T04:33:26;4.15;;;1.83;;
45792;SDS011;31495;42.740;22.908;2023-03-01T04:34:26;2.72;;;1.35;;
45792;SDS011;31495;42.740;22.908;2023-03-01T04:35:26;3.80;;;1.70;;
45792;SDS011;31495;42.740;22.908;2023-03-01T04:36:26;4.07;;;1.80;;
45792;SDS011;31495;42.740;22.908;2023-03-01T04:37:27;4.45;;;1.75;;
45792;SDS011;31495;42.740;22.908;2023-03-01T04:38:26;3.72;;;1.85;;
45792;SDS011;31495;42.740;22.908;2023-03-01T04:39:26;9.43;;;2.05;;
45792;SDS011;31495;42.740;22.908;2023-03-01T04:40:25;4.97;;;1.80;;
45792;SDS011;31495;42.740;22.908;2023-03-01T04:41:25;4.10;;;1.55;;
45792;SDS011;31495;42.740;22.908;2023-03-01T04:42:25;3.28;;;1.92;;
45792;SDS011;31495;42.740;22.908;2023-03-01T04:43:24;3.42;;;1.58;;
45792;SDS011;31495;42.740;22.908;2023-03-01T04:44:24;3.53;;;1.60;;
45792;SDS011;31495;42.740;22.908;2023-03-01T04:45:23;4.20;;;2.00;;
45792;SDS011;31495;42.740;22.908;2023-03-01T04:46:23;3.83;;;1.55;;
45792;SDS011;31495;42.740;22.908;2023-03-01T04:47:23;4.75;;;1.60;;
45792;SDS011;31495;42.740;22.908;2023-03-01T04:48:22;5.85;;;1.40;;
45792;SDS011;31495;42.740;22.908;2023-03-01T04:49:21;2.97;;;1.45;;
45792;SDS011;31495;42.740;22.908;2023-03-01T04:50:21;5.15;;;1.98;;
45792;SDS011;31495;42.740;22.908;2023-03-01T04:52:22;3.38;;;1.50;;
45792;SDS011;31495;42.740;22.908;2023-03-01T04:53:21;4.90;;;1.80;;
45792;SDS011;31495;42.740;22.908;2023-03-01T04:54:21;3.20;;;1.73;;
45792;SDS011;31495;42.740;22.908;2023-03-01T04:55:20;2.53;;;1.23;;
45792;SDS011;31495;42.740;22.908;2023-03-01T04:56:20;4.97;;;1.48;;
45792;SDS011;31495;42.740;22.908;2023-03-01T04:57:22;3.75;;;2.35;;
45792;SDS011;31495;42.740;22.908;2023-03-01T04:58:25;4.65;;;2.38;;
45792;SDS011;31495;42.740;22.908;2023-03-01T04:59:26;9.68;;;3.22;;
45792;SDS011;31495;42.740;22.908;2023-03-01T05:00:26;4.25;;;1.83;;
45792;SDS011;31495;42.740;22.908;2023-03-01T05:01:26;2.17;;;1.30;;
45792;SDS011;31495;42.740;22.908;2023-03-01T05:02:25;3.40;;;1.40;;
45792;SDS011;31495;42.740;22.908;2023-03-01T05:03:24;3.05;;;1.42;;
45792;SDS011;31495;42.740;22.908;2023-03-01T05:04:24;3.03;;;1.20;;
45792;SDS011;31495;42.740;22.908;2023-03-01T05:06:32;2.15;;;1.13;;
45792;SDS011;31495;42.740;22.908;2023-03-01T05:07:32;3.97;;;1.23;;
45792;SDS011;31495;42.740;22.908;2023-03-01T05:08:31;7.13;;;1.60;;
45792;SDS011;31495;42.740;22.908;2023-03-01T05:09:33;2.40;;;1.17;;
45792;SDS011;31495;42.740;22.908;2023-03-01T05:10:34;3.20;;;1.02;;
45792;SDS011;31495;42.740;22.908;2023-03-01T05:11:35;3.42;;;1.65;;
45792;SDS011;31495;42.740;22.908;2023-03-01T05:12:35;9.13;;;2.42;;
45792;SDS011;31495;42.740;22.908;2023-03-01T05:13:37;6.05;;;2.40;;
45792;SDS011;31495;42.740;22.908;2023-03-01T05:14:37;5.97;;;2.08;;
45792;SDS011;31495;42.740;22.908;2023-03-01T05:15:37;5.97;;;2.90;;
45792;SDS011;31495;42.740;22.908;2023-03-01T05:16:37;2.97;;;1.58;;
45792;SDS011;31495;42.740;22.908;2023-03-01T05:17:36;3.70;;;1.40;;
45792;SDS011;31495;42.740;22.908;2023-03-01T05:18:36;2.92;;;1.30;;
45792;SDS011;31495;42.740;22.908;2023-03-01T05:19:35;4.13;;;2.28;;
45792;SDS011;31495;42.740;22.908;2023-03-01T05:20:35;3.45;;;1.30;;
45792;SDS011;31495;42.740;22.908;2023-03-01T05:21:35;4.30;;;1.65;;
45792;SDS011;31495;42.740;22.908;2023-03-01T05:22:55;3.03;;;1.52;;
45792;SDS011;31495;42.740;22.908;2023-03-01T05:23:57;4.75;;;1.98;;
45792;SDS011;31495;42.740;22.908;2023-03-01T05:24:57;2.78;;;1.52;;
45792;SDS011;31495;42.740;22.908;2023-03-01T05:25:57;6.28;;;2.10;;
45792;SDS011;31495;42.740;22.908;2023-03-01T05:27:59;3.30;;;1.52;;
45792;SDS011;31495;42.740;22.908;2023-03-01T05:29:03;3.28;;;1.60;;
45792;SDS011;31495;42.740;22.908;2023-03-01T05:30:03;4.78;;;1.77;;
45792;SDS011;31495;42.740;22.908;2023-03-01T05:31:12;4.00;;;1.95;;
45792;SDS011;31495;42.740;22.908;2023-03-01T05:32:11;3.50;;;1.58;;
45792;SDS011;31495;42.740;22.908;2023-03-01T05:33:14;2.90;;;1.48;;
45792;SDS011;31495;42.740;22.908;2023-03-01T05:34:14;3.40;;;1.52;;
45792;SDS011;31495;42.740;22.908;2023-03-01T05:35:13;3.10;;;1.38;;
45792;SDS011;31495;42.740;22.908;2023-03-01T05:36:14;3.05;;;1.73;;
45792;SDS011;31495;42.740;22.908;2023-03-01T05:37:14;3.90;;;2.25;;
45792;SDS011;31495;42.740;22.908;2023-03-01T05:38:14;5.18;;;2.40;;
45792;SDS011;31495;42.740;22.908;2023-03-01T05:39:14;3.47;;;2.20;;
45792;SDS011;31495;42.740;22.908;2023-03-01T05:40:18;6.00;;;3.47;;
45792;SDS011;31495;42.740;22.908;2023-03-01T05:41:19;3.88;;;2.17;;
45792;SDS011;31495;42.740;22.908;2023-03-01T05:42:19;3.10;;;1.50;;
45792;SDS011;31495;42.740;22.908;2023-03-01T05:43:18;2.78;;;1.10;;
45792;SDS011;31495;42.740;22.908;2023-03-01T05:44:18;3.22;;;1.58;;
45792;SDS011;31495;42.740;22.908;2023-03-01T05:45:18;2.88;;;1.48;;
45792;SDS011;31495;42.740;22.908;2023-03-01T05:46:17;3.38;;;1.50;;
45792;SDS011;31495;42.740;22.908;2023-03-01T05:47:17;6.47;;;2.05;;
45792;SDS011;31495;42.740;22.908;2023-03-01T05:48:16;2.90;;;1.95;;
45792;SDS011;31495;42.740;22.908;2023-03-01T05:49:18;3.15;;;1.80;;
45792;SDS011;31495;42.740;22.908;2023-03-01T05:50:18;3.65;;;1.85;;
45792;SDS011;31495;42.740;22.908;2023-03-01T05:51:19;3.83;;;2.10;;
45792;SDS011;31495;42.740;22.908;2023-03-01T05:52:18;3.47;;;1.42;;
45792;SDS011;31495;42.740;22.908;2023-03-01T05:53:18;3.00;;;1.38;;
45792;SDS011;31495;42.740;22.908;2023-03-01T05:54:22;3.28;;;1.58;;
45792;SDS011;31495;42.740;22.908;2023-03-01T05:55:21;2.78;;;1.42;;
45792;SDS011;31495;42.740;22.908;2023-03-01T05:56:21;5.07;;;2.75;;
45792;SDS011;31495;42.740;22.908;2023-03-01T05:57:21;2.63;;;1.55;;
45792;SDS011;31495;42.740;22.908;2023-03-01T05:58:20;2.80;;;1.65;;
45792;SDS011;31495;42.740;22.908;2023-03-01T05:59:20;3.50;;;1.95;;
45792;SDS011;31495;42.740;22.908;2023-03-01T06:00:20;5.57;;;2.72;;
45792;SDS011;31495;42.740;22.908;2023-03-01T06:01:23;4.03;;;2.05;;
45792;SDS011;31495;42.740;22.908;2023-03-01T06:02:23;4.30;;;1.90;;
45792;SDS011;31495;42.740;22.908;2023-03-01T06:03:22;3.35;;;1.55;;
45792;SDS011;31495;42.740;22.908;2023-03-01T06:04:21;3.80;;;1.73;;
45792;SDS011;31495;42.740;22.908;2023-03-01T06:05:21;3.40;;;1.83;;
45792;SDS011;31495;42.740;22.908;2023-03-01T06:06:21;2.97;;;1.52;;
45792;SDS011;31495;42.740;22.908;2023-03-01T06:07:21;3.08;;;1.42;;
45792;SDS011;31495;42.740;22.908;2023-03-01T06:08:20;2.90;;;1.60;;
45792;SDS011;31495;42.740;22.908;2023-03-01T06:09:21;3.58;;;1.40;;
45792;SDS011;31495;42.740;22.908;2023-03-01T06:10:21;4.40;;;2.25;;
45792;SDS011;31495;42.740;22.908;2023-03-01T06:11:21;6.45;;;3.35;;
45792;SDS011;31495;42.740;22.908;2023-03-01T06:12:20;8.20;;;3.78;;
45792;SDS011;31495;42.740;22.908;2023-03-01T06:13:20;6.07;;;2.95;;
45792;SDS011;31495;42.740;22.908;2023-03-01T06:14:20;4.45;;;2.35;;
45792;SDS011;31495;42.740;22.908;2023-03-01T06:15:20;3.80;;;1.88;;
45792;SDS011;31495;42.740;22.908;2023-03-01T06:16:20;4.20;;;1.65;;
45792;SDS011;31495;42.740;22.908;2023-03-01T06:17:20;2.92;;;1.40;;